createdAt,value
2022-10-31T00:01:37.800Z,100366.97
2022-10-31T00:04:06.092Z,100361.72
2022-10-31T00:06:33.251Z,100363.78
2022-10-31T00:09:03.037Z,100370.22
2022-10-31T00:11:30.213Z,100370.22
2022-10-31T00:13:59.476Z,100371.28
2022-10-31T00:16:27.082Z,100372.28
2022-10-31T00:18:57.093Z,100376.47
2022-10-31T00:21:25.727Z,100381.06
2022-10-31T00:23:52.837Z,100379.41
2022-10-31T00:26:20.621Z,100393.16
2022-10-31T00:28:47.814Z,100389.38
2022-10-31T00:31:15.404Z,100386.69
2022-10-31T00:33:42.737Z,100388.03
2022-10-31T00:36:15.427Z,100390.53
2022-10-31T00:38:43.886Z,100380.53
2022-10-31T00:41:12.808Z,100385.59
2022-10-31T00:43:39.586Z,100375.94
2022-10-31T00:46:06.451Z,100381.19
2022-10-31T00:48:33.699Z,100378.50
2022-10-31T00:51:00.521Z,100375.78
2022-10-31T00:53:27.314Z,100379.97
2022-10-31T00:55:54.178Z,100380.63
2022-10-31T00:58:20.922Z,100385.06
2022-10-31T01:00:56.469Z,100385.06
2022-10-31T01:03:30.308Z,100381.28
2022-10-31T01:06:10.801Z,100380.28
2022-10-31T01:08:39.009Z,100388.03
2022-10-31T01:11:21.101Z,100377.19
2022-10-31T01:13:49.185Z,100373.94
2022-10-31T01:16:20.986Z,100384.97
2022-10-31T01:18:48.374Z,100386.00
2022-10-31T01:21:27.604Z,100389.75
2022-10-31T01:23:56.412Z,100385.31
2022-10-31T01:26:27.261Z,100397.03
2022-10-31T01:29:04.850Z,100390.75
2022-10-31T01:31:37.810Z,100392.63
2022-10-31T01:34:05.535Z,100393.47
2022-10-31T01:36:36.446Z,100387.19
2022-10-31T01:39:10.094Z,100386.38
2022-10-31T01:41:41.625Z,100386.72
2022-10-31T01:44:17.868Z,100382.34
2022-10-31T01:46:48.180Z,100388.94
2022-10-31T01:49:58.947Z,100383.06
2022-10-31T01:52:34.259Z,100386.16
2022-10-31T01:55:09.119Z,100393.97
2022-10-31T01:57:39.174Z,100388.56
2022-10-31T02:00:11.114Z,100384.53
2022-10-31T02:02:37.987Z,100385.75
2022-10-31T02:05:11.191Z,100379.63
2022-10-31T02:07:47.248Z,100372.06
2022-10-31T02:10:14.322Z,100373.44
2022-10-31T02:12:42.321Z,100379.03
2022-10-31T02:15:10.659Z,100387.72
2022-10-31T02:17:37.646Z,100394.16
2022-10-31T02:20:20.004Z,100387.41
2022-10-31T02:23:52.234Z,100375.09
2022-10-31T02:26:47.551Z,100365.06
2022-10-31T02:29:54.472Z,100362.19
2022-10-31T02:32:45.240Z,100359.00
2022-10-31T02:35:43.849Z,100365.06
2022-10-31T02:38:45.887Z,100372.16
2022-10-31T02:41:23.580Z,100370.97
2022-10-31T02:44:05.498Z,100369.75
2022-10-31T02:46:56.184Z,100368.03
2022-10-31T02:49:31.465Z,100367.66
2022-10-31T02:51:58.237Z,100359.16
2022-10-31T02:54:28.738Z,100373.38
2022-10-31T02:57:03.426Z,100364.50
2022-10-31T02:59:33.554Z,100364.81
2022-10-31T03:02:15.085Z,100367.81
2022-10-31T03:05:00.277Z,100362.31
2022-10-31T03:07:56.331Z,100358.75
2022-10-31T03:10:49.502Z,100355.03
2022-10-31T03:13:51.259Z,100358.28
2022-10-31T03:16:46.409Z,100359.31
2022-10-31T03:19:21.611Z,100361.06
2022-10-31T03:21:59.133Z,100351.25
2022-10-31T03:24:32.174Z,100349.56
2022-10-31T03:27:01.892Z,100347.22
2022-10-31T03:29:34.736Z,100355.53
2022-10-31T03:32:12.063Z,100358.81
2022-10-31T03:34:43.166Z,100357.06
2022-10-31T03:37:16.131Z,100350.59
2022-10-31T03:39:45.850Z,100354.44
2022-10-31T03:42:24.363Z,100350.50
2022-10-31T03:45:17.572Z,100348.25
2022-10-31T03:47:45.503Z,100349.22
2022-10-31T03:50:15.688Z,100348.47
2022-10-31T03:53:10.262Z,100351.66
2022-10-31T03:56:07.112Z,100348.59
2022-10-31T03:58:41.142Z,100351.47
2022-10-31T04:01:13.294Z,100346.91
2022-10-31T04:03:40.693Z,100337.25
2022-10-31T04:06:12.139Z,100331.00
2022-10-31T04:08:47.079Z,100324.44
2022-10-31T04:11:16.576Z,100335.47
2022-10-31T04:13:47.273Z,100327.34
2022-10-31T04:16:17.145Z,100315.84
2022-10-31T04:18:44.930Z,100315.19
2022-10-31T04:21:11.820Z,100317.06
2022-10-31T04:23:39.001Z,100318.25
2022-10-31T04:26:05.991Z,100316.19
2022-10-31T04:28:35.006Z,100312.47
2022-10-31T04:31:02.019Z,100306.84
2022-10-31T04:33:28.870Z,100304.50
2022-10-31T04:35:56.138Z,100312.81
2022-10-31T04:38:22.931Z,100307.78
2022-10-31T04:40:49.736Z,100308.88
2022-10-31T04:43:16.815Z,100310.56
2022-10-31T04:45:43.606Z,100301.75
2022-10-31T04:48:10.357Z,100300.09
2022-10-31T04:50:37.424Z,100292.97
2022-10-31T04:53:04.243Z,100295.22
2022-10-31T04:55:31.514Z,100295.78
2022-10-31T04:57:59.119Z,100289.97
2022-10-31T05:00:26.188Z,100287.63
2022-10-31T05:02:59.019Z,100276.78
2022-10-31T05:05:32.245Z,100275.91
2022-10-31T05:07:59.056Z,100277.63
2022-10-31T05:10:29.713Z,100292.00
2022-10-31T05:13:03.033Z,100283.03
2022-10-31T05:15:31.435Z,100283.69
2022-10-31T05:17:58.851Z,100293.31
2022-10-31T05:20:29.534Z,100291.66
2022-10-31T05:22:58.300Z,100281.16
2022-10-31T05:25:28.849Z,100295.56
2022-10-31T05:27:57.123Z,100286.59
2022-10-31T05:30:28.976Z,100285.75
2022-10-31T05:32:56.186Z,100271.16
2022-10-31T05:35:29.434Z,100275.09
2022-10-31T05:37:56.690Z,100277.44
2022-10-31T05:40:23.578Z,100276.78
2022-10-31T05:42:54.124Z,100268.44
2022-10-31T05:45:23.089Z,100279.78
2022-10-31T05:47:58.708Z,100283.34
2022-10-31T05:50:29.108Z,100263.72
2022-10-31T05:53:00.194Z,100281.66
2022-10-31T05:55:28.358Z,100264.53
2022-10-31T05:57:56.175Z,100263.72
2022-10-31T06:00:24.460Z,100261.81
2022-10-31T06:02:59.276Z,100257.91
2022-10-31T06:05:26.094Z,100253.31
2022-10-31T06:07:52.861Z,100252.47
2022-10-31T06:10:21.956Z,100250.59
2022-10-31T06:12:49.309Z,100245.00
2022-10-31T06:15:23.297Z,100243.50
2022-10-31T06:18:05.965Z,100243.31
2022-10-31T06:20:34.079Z,100236.66
2022-10-31T06:23:02.153Z,100231.91
2022-10-31T06:25:29.669Z,100234.25
2022-10-31T06:27:56.932Z,100218.81
2022-10-31T06:30:23.769Z,100222.34
2022-10-31T06:32:50.887Z,100224.06
2022-10-31T06:35:18.305Z,100226.78
2022-10-31T06:37:55.445Z,100218.63
2022-10-31T06:40:22.660Z,100235.56
2022-10-31T06:42:58.990Z,100232.19
2022-10-31T06:45:26.207Z,100238.94
2022-10-31T06:48:22.577Z,100242.69
2022-10-31T06:50:41.749Z,100243.34
2022-10-31T06:55:58.230Z,100244.47
2022-10-31T06:58:25.313Z,100237.44
2022-10-31T07:00:52.099Z,100233.31
2022-10-31T07:03:19.250Z,100244.66
2022-10-31T07:05:46.079Z,100240.53
2022-10-31T07:08:15.000Z,100241.34
2022-10-31T07:10:44.603Z,100243.31
2022-10-31T07:13:14.589Z,100246.31
2022-10-31T07:15:44.189Z,100251.38
2022-10-31T07:18:13.551Z,100252.03
2022-10-31T07:20:40.336Z,100261.47
2022-10-31T07:23:07.282Z,100260.63
2022-10-31T07:25:34.390Z,100268.00
2022-10-31T07:28:01.481Z,100262.66
2022-10-31T07:30:28.809Z,100263.97
2022-10-31T07:32:56.559Z,100272.38
2022-10-31T07:35:26.836Z,100271.00
2022-10-31T07:37:54.289Z,100275.00
2022-10-31T07:40:22.229Z,100280.06
2022-10-31T07:42:52.410Z,100280.53
2022-10-31T07:45:21.686Z,100283.34
2022-10-31T07:47:51.719Z,100293.16
2022-10-31T07:50:25.030Z,100286.31
2022-10-31T07:53:13.873Z,100283.22
2022-10-31T07:55:41.274Z,100278.88
2022-10-31T07:58:15.355Z,100287.22
2022-10-31T08:00:46.231Z,100275.78
2022-10-31T08:03:17.549Z,100275.38
2022-10-31T08:05:46.995Z,100267.06
2022-10-31T08:08:15.216Z,100265.63
2022-10-31T08:10:42.421Z,100272.38
2022-10-31T08:13:15.242Z,100265.44
2022-10-31T08:15:43.160Z,100274.31
2022-10-31T08:18:14.922Z,100284.41
2022-10-31T08:20:45.198Z,100284.41
2022-10-31T08:23:13.528Z,100281.97
2022-10-31T08:25:41.289Z,100283.06
2022-10-31T08:28:10.168Z,100282.47
2022-10-31T08:30:39.004Z,100291.25
2022-10-31T08:33:16.323Z,100284.63
2022-10-31T08:35:43.168Z,100285.91
2022-10-31T08:38:12.472Z,100274.59
2022-10-31T08:40:40.070Z,100291.38
2022-10-31T08:43:12.984Z,100281.16
2022-10-31T08:45:40.493Z,100280.75
2022-10-31T08:48:15.427Z,100281.59
2022-10-31T08:50:43.812Z,100274.31
2022-10-31T08:53:14.954Z,100269.50
2022-10-31T08:55:43.755Z,100261.97
2022-10-31T08:58:14.017Z,100263.84
2022-10-31T09:00:41.641Z,100255.50
2022-10-31T09:03:17.071Z,100248.38
2022-10-31T09:05:44.889Z,100245.88
2022-10-31T09:08:15.937Z,100246.56
2022-10-31T09:10:44.752Z,100255.38
2022-10-31T09:13:15.309Z,100246.78
2022-10-31T09:15:45.038Z,100242.84
2022-10-31T09:18:13.680Z,100240.97
2022-10-31T09:20:42.333Z,100240.03
2022-10-31T09:23:21.941Z,100235.63
2022-10-31T09:25:51.610Z,100220.81
2022-10-31T09:28:22.712Z,100235.28
2022-10-31T09:30:54.844Z,100238.25
2022-10-31T09:33:22.191Z,100234.13
2022-10-31T09:35:49.278Z,100237.69
2022-10-31T09:38:24.546Z,100229.13
2022-10-31T09:41:22.231Z,100235.41
2022-10-31T09:44:10.307Z,100237.50
2022-10-31T09:47:11.013Z,100226.41
2022-10-31T09:50:03.904Z,100221.59
2022-10-31T09:52:34.910Z,100221.59
2022-10-31T09:55:29.221Z,100212.78
2022-10-31T09:57:56.167Z,100208.41
2022-10-31T10:00:23.781Z,100211.59
2022-10-31T10:03:23.376Z,100205.06
2022-10-31T10:06:00.990Z,100209.94
2022-10-31T10:08:32.890Z,100209.72
2022-10-31T10:11:35.002Z,100209.09
2022-10-31T10:14:34.919Z,100210.56
2022-10-31T10:17:28.203Z,100211.63
2022-10-31T10:20:07.112Z,100199.91
2022-10-31T10:22:54.216Z,100197.63
2022-10-31T10:25:24.671Z,100196.56
2022-10-31T10:28:19.150Z,100197.81
2022-10-31T10:30:55.982Z,100194.50
2022-10-31T10:33:34.410Z,100192.84
2022-10-31T10:36:06.856Z,100192.00
2022-10-31T10:38:42.990Z,100188.88
2022-10-31T10:41:21.540Z,100179.03
2022-10-31T10:43:57.190Z,100196.88
2022-10-31T10:46:42.426Z,100189.09
2022-10-31T10:49:20.249Z,100189.75
2022-10-31T10:55:01.110Z,100180.53
2022-10-31T10:57:46.134Z,100179.72
2022-10-31T11:00:29.029Z,100168.19
2022-10-31T11:02:56.711Z,100162.91
2022-10-31T11:05:51.653Z,100161.22
2022-10-31T11:08:34.377Z,100156.38
2022-10-31T11:11:21.174Z,100148.00
2022-10-31T11:13:50.967Z,100146.75
2022-10-31T11:16:41.561Z,100145.47
2022-10-31T11:19:23.209Z,100142.34
2022-10-31T11:21:52.774Z,100138.13
2022-10-31T11:24:27.275Z,100133.13
2022-10-31T11:27:14.717Z,100126.81
2022-10-31T11:29:41.486Z,100119.91
2022-10-31T11:32:23.221Z,100119.91
2022-10-31T11:34:55.697Z,100111.28
2022-10-31T11:37:44.367Z,100118.25
2022-10-31T11:40:28.631Z,100114.00
2022-10-31T11:42:58.709Z,100116.16
2022-10-31T11:45:25.420Z,100112.16
2022-10-31T11:47:59.832Z,100105.25
2022-10-31T11:50:39.590Z,100097.69
2022-10-31T11:53:19.317Z,100091.81
2022-10-31T11:56:04.927Z,100092.22
2022-10-31T11:58:32.368Z,100096.63
2022-10-31T12:00:59.377Z,100093.06
2022-10-31T12:03:41.413Z,100089.28
2022-10-31T12:06:21.994Z,100093.69
2022-10-31T12:08:49.270Z,100084.22
2022-10-31T12:11:56.709Z,100077.09
2022-10-31T12:15:10.205Z,100072.06
2022-10-31T12:18:19.519Z,100068.47
2022-10-31T12:20:56.440Z,100064.03
2022-10-31T12:23:29.266Z,100069.50
2022-10-31T12:26:15.532Z,100064.88
2022-10-31T12:29:10.168Z,100053.50
2022-10-31T12:31:55.488Z,100055.38
2022-10-31T12:35:01.825Z,100048.69
2022-10-31T12:38:06.581Z,100044.47
2022-10-31T12:41:11.670Z,100036.72
2022-10-31T12:44:06.322Z,100026.59
2022-10-31T12:47:00.395Z,100022.63
2022-10-31T12:49:51.722Z,100019.47
2022-10-31T12:52:36.107Z,100014.84
2022-10-31T12:55:23.448Z,100010.22
2022-10-31T12:58:03.091Z,99995.75
2022-10-31T13:00:34.535Z,100000.97
2022-10-31T13:03:25.605Z,99984.59
2022-10-31T13:06:10.868Z,99978.50
2022-10-31T13:08:52.452Z,99973.31
2022-10-31T13:11:38.443Z,99958.78
2022-10-31T13:14:16.308Z,99952.69
2022-10-31T13:16:48.658Z,99945.34
2022-10-31T13:19:25.333Z,99942.59
2022-10-31T13:22:01.464Z,99938.38
2022-10-31T13:24:40.704Z,99927.88
2022-10-31T13:27:31.127Z,99935.38
2022-10-31T13:30:22.164Z,99921.50
2022-10-31T13:33:04.553Z,99917.53
2022-10-31T13:35:54.920Z,99915.22
2022-10-31T13:38:58.692Z,99906.41
2022-10-31T13:41:44.938Z,99906.03
2022-10-31T13:44:35.797Z,99900.78
2022-10-31T13:47:23.251Z,99897.84
2022-10-31T13:49:50.170Z,99900.59
2022-10-31T13:52:25.790Z,99891.78
2022-10-31T13:54:58.016Z,99881.94
2022-10-31T13:57:43.494Z,99883.47
2022-10-31T14:00:22.605Z,99880.50
2022-10-31T14:02:53.377Z,99876.50
2022-10-31T14:05:27.838Z,99876.28
2022-10-31T14:08:02.129Z,99863.69
2022-10-31T14:10:38.546Z,99866.00
2022-10-31T14:13:42.585Z,99860.53
2022-10-31T14:16:33.941Z,99860.72
2022-10-31T14:19:15.552Z,99858.00
2022-10-31T14:21:48.675Z,99849.59
2022-10-31T14:24:24.693Z,99837.59
2022-10-31T14:27:03.141Z,99835.72
2022-10-31T14:29:36.388Z,99837.38
2022-10-31T14:32:27.985Z,99834.22
2022-10-31T14:34:59.065Z,99822.09
2022-10-31T14:38:06.420Z,99830.31
2022-10-31T14:41:22.785Z,99828.91
2022-10-31T14:44:19.925Z,99813.16
2022-10-31T14:46:55.780Z,99814.44
2022-10-31T14:49:40.783Z,99811.75
2022-10-31T14:52:09.961Z,99809.47
2022-10-31T14:54:47.126Z,99798.78
2022-10-31T14:57:25.117Z,99800.09
2022-10-31T15:00:08.680Z,99791.75
2022-10-31T15:02:46.481Z,99788.19
2022-10-31T15:05:14.279Z,99783.41
2022-10-31T15:07:59.307Z,99784.44
2022-10-31T15:10:37.703Z,99775.44
2022-10-31T15:13:22.656Z,99767.13
2022-10-31T15:15:53.056Z,99761.66
2022-10-31T15:18:27.457Z,99762.50
2022-10-31T15:20:56.870Z,99751.19
2022-10-31T15:23:30.168Z,99742.00
2022-10-31T15:26:06.096Z,99740.38
2022-10-31T15:28:33.085Z,99743.34
2022-10-31T15:31:02.408Z,99745.06
2022-10-31T15:33:50.869Z,99734.59
2022-10-31T15:36:29.252Z,99726.28
2022-10-31T15:38:59.007Z,99718.31
2022-10-31T15:41:32.505Z,99720.03
2022-10-31T15:44:11.859Z,99720.91
2022-10-31T15:46:38.750Z,99714.84
2022-10-31T15:49:19.690Z,99707.09
2022-10-31T15:51:50.485Z,99705.00
2022-10-31T15:54:20.514Z,99703.59
2022-10-31T15:56:47.363Z,99685.97
2022-10-31T15:59:27.406Z,99675.72
2022-10-31T16:02:03.637Z,99688.28
2022-10-31T16:04:30.824Z,99689.75
2022-10-31T16:07:14.694Z,99689.97
2022-10-31T16:09:57.974Z,99692.91
2022-10-31T16:12:35.312Z,99685.75
2022-10-31T16:15:03.804Z,99681.16
2022-10-31T16:17:31.007Z,99664.81
2022-10-31T16:20:00.295Z,99659.97
2022-10-31T16:22:39.085Z,99650.56
2022-10-31T16:25:15.320Z,99651.63
2022-10-31T16:27:54.045Z,99646.78
2022-10-31T16:30:32.179Z,99629.41
2022-10-31T16:33:02.817Z,99630.84
2022-10-31T16:35:37.905Z,99629.41
2022-10-31T16:38:06.248Z,99617.47
2022-10-31T16:40:34.070Z,99608.44
2022-10-31T16:43:02.472Z,99601.94
2022-10-31T16:45:33.282Z,99591.28
2022-10-31T16:48:07.478Z,99595.69
2022-10-31T16:50:34.628Z,99590.44
2022-10-31T16:53:13.546Z,99586.88
2022-10-31T16:56:03.634Z,99583.38
2022-10-31T16:58:36.271Z,99589.84
2022-10-31T17:01:06.414Z,99590.66
2022-10-31T17:03:33.485Z,99581.88
2022-10-31T17:06:00.426Z,99579.16
2022-10-31T17:08:27.430Z,99583.13
2022-10-31T17:10:59.469Z,99588.63
2022-10-31T17:13:32.518Z,99597.22
2022-10-31T17:16:04.549Z,99591.78
2022-10-31T17:18:31.318Z,99586.59
2022-10-31T17:21:00.805Z,99574.03
2022-10-31T17:23:28.954Z,99569.25
2022-10-31T17:25:56.978Z,99567.81
2022-10-31T17:28:23.854Z,99562.38
2022-10-31T17:30:50.777Z,99563.03
2022-10-31T17:33:17.830Z,99556.09
2022-10-31T17:35:45.406Z,99545.69
2022-10-31T17:38:13.269Z,99541.06
2022-10-31T17:40:42.401Z,99529.38
2022-10-31T17:43:11.225Z,99506.78
2022-10-31T17:45:42.621Z,99508.06
2022-10-31T17:48:13.163Z,99513.09
2022-10-31T17:50:40.627Z,99506.19
2022-10-31T17:53:07.655Z,99499.72
2022-10-31T17:55:37.375Z,99486.34
2022-10-31T17:58:07.366Z,99497.22
2022-10-31T18:00:34.546Z,99491.41
2022-10-31T18:03:04.210Z,99497.66
2022-10-31T18:05:31.957Z,99499.78
2022-10-31T18:08:02.485Z,99490.38
2022-10-31T18:10:30.773Z,99467.34
2022-10-31T18:12:57.645Z,99452.06
2022-10-31T18:15:24.503Z,99435.75
2022-10-31T18:17:51.267Z,99434.91
2022-10-31T18:20:18.156Z,99423.44
2022-10-31T18:22:45.294Z,99417.38
2022-10-31T18:25:12.081Z,99406.09
2022-10-31T18:27:38.998Z,99394.38
2022-10-31T18:30:06.776Z,99382.66
2022-10-31T18:32:33.991Z,99365.50
2022-10-31T18:35:00.945Z,99355.09
2022-10-31T18:37:28.394Z,99360.97
2022-10-31T18:39:55.295Z,99357.16
2022-10-31T18:42:22.078Z,99335.41
2022-10-31T18:44:48.822Z,99332.09
2022-10-31T18:47:15.878Z,99316.44
2022-10-31T18:49:42.826Z,99309.97
2022-10-31T18:52:09.584Z,99297.41
2022-10-31T18:54:36.484Z,99287.44
2022-10-31T18:57:03.279Z,99276.34
2022-10-31T18:59:30.081Z,99266.28
2022-10-31T19:01:57.351Z,99269.84
2022-10-31T19:04:24.321Z,99260.44
2022-10-31T19:06:51.058Z,99251.88
2022-10-31T19:09:17.828Z,99248.50
2022-10-31T19:11:44.788Z,99239.31
2022-10-31T19:14:15.001Z,99226.75
2022-10-31T19:16:42.502Z,99231.38
2022-10-31T19:19:09.861Z,99225.50
2022-10-31T19:21:36.633Z,99223.00
2022-10-31T19:24:04.124Z,99208.81
2022-10-31T19:26:34.829Z,99195.81
2022-10-31T19:29:01.900Z,99174.06
2022-10-31T19:31:28.707Z,99168.25
2022-10-31T19:33:55.451Z,99168.84
2022-10-31T19:36:23.146Z,99164.09
2022-10-31T19:38:52.522Z,99165.75
2022-10-31T19:41:26.282Z,99183.13
2022-10-31T19:43:54.274Z,99160.31
2022-10-31T19:46:40.401Z,99152.16
2022-10-31T19:49:11.999Z,99132.91
2022-10-31T19:51:38.911Z,99128.53
2022-10-31T19:54:07.134Z,99129.59
2022-10-31T19:56:35.043Z,99120.81
2022-10-31T19:59:04.161Z,99120.00
2022-10-31T20:01:31.333Z,99116.69
2022-10-31T20:03:59.204Z,99113.97
2022-10-31T20:06:36.885Z,99116.91
2022-10-31T20:09:13.702Z,99090.38
2022-10-31T20:11:42.400Z,99085.00
2022-10-31T20:14:13.548Z,99079.09
2022-10-31T20:16:40.375Z,99070.34
2022-10-31T20:19:07.460Z,99067.19
2022-10-31T20:21:39.163Z,99052.78
2022-10-31T20:24:09.692Z,99053.00
2022-10-31T20:26:39.497Z,99054.25
2022-10-31T20:29:07.187Z,99052.78
2022-10-31T20:31:36.704Z,99035.88
2022-10-31T20:34:03.953Z,99040.06
2022-10-31T20:36:31.703Z,99019.19
2022-10-31T20:38:59.027Z,99020.22
2022-10-31T20:41:26.579Z,99011.63
2022-10-31T20:43:53.750Z,99012.47
2022-10-31T20:46:27.030Z,98999.47
2022-10-31T20:48:54.667Z,98983.63
2022-10-31T20:51:25.692Z,98984.25
2022-10-31T20:53:55.872Z,98971.00
2022-10-31T20:56:25.281Z,98962.03
2022-10-31T20:58:54.524Z,98953.44
2022-10-31T21:01:31.640Z,98949.03
2022-10-31T21:03:59.219Z,98940.00
2022-10-31T21:06:27.581Z,98936.66
2022-10-31T21:08:54.877Z,98929.13
2022-10-31T21:11:25.078Z,98916.16
2022-10-31T21:13:52.783Z,98909.03
2022-10-31T21:16:23.834Z,98908.38
2022-10-31T21:18:51.472Z,98895.13
2022-10-31T21:21:26.274Z,98900.56
2022-10-31T21:24:01.959Z,98882.59
2022-10-31T21:26:33.554Z,98894.69
2022-10-31T21:29:01.096Z,98876.84
2022-10-31T21:31:28.613Z,98869.16
2022-10-31T21:33:55.884Z,98859.94
2022-10-31T21:36:22.740Z,98850.13
2022-10-31T21:38:51.567Z,98853.44
2022-10-31T21:41:19.873Z,98858.03
2022-10-31T21:43:50.137Z,98860.31
2022-10-31T21:46:20.522Z,98852.38
2022-10-31T21:48:48.328Z,98850.25
2022-10-31T21:51:27.963Z,98847.53
2022-10-31T21:54:14.200Z,98833.94
2022-10-31T21:56:41.767Z,98832.66
2022-10-31T21:59:08.710Z,98819.88
2022-10-31T22:01:36.664Z,98820.72
2022-10-31T22:04:04.504Z,98807.47
2022-10-31T22:06:32.423Z,98798.28
2022-10-31T22:09:01.784Z,98796.00
2022-10-31T22:11:29.654Z,98800.41
2022-10-31T22:13:59.290Z,98793.28
2022-10-31T22:16:29.066Z,98786.81
2022-10-31T22:18:59.749Z,98776.53
2022-10-31T22:21:29.197Z,98768.13
2022-10-31T22:24:01.975Z,98763.97
2022-10-31T22:26:37.892Z,98760.81
2022-10-31T22:29:10.383Z,98748.84
2022-10-31T22:31:40.898Z,98749.09
2022-10-31T22:34:07.900Z,98742.59
2022-10-31T22:36:37.969Z,98738.22
2022-10-31T22:39:06.559Z,98730.06
2022-10-31T22:41:37.332Z,98735.50
2022-10-31T22:44:05.760Z,98728.78
2022-10-31T22:46:38.869Z,98722.25
2022-10-31T22:49:10.895Z,98711.63
2022-10-31T22:51:40.087Z,98705.94
2022-10-31T22:54:22.184Z,98702.16
2022-10-31T22:56:48.978Z,98685.63
2022-10-31T22:59:17.497Z,98679.34
2022-10-31T23:01:48.520Z,98670.59
2022-10-31T23:04:16.818Z,98666.59
2022-10-31T23:09:30.340Z,98654.88
2022-10-31T23:12:24.829Z,98643.41
2022-10-31T23:15:33.516Z,98639.63
2022-10-31T23:23:38.939Z,98621.91
2022-10-31T23:26:38.405Z,98602.63
2022-10-31T23:29:06.105Z,98602.88
